Time;durP1;ratioP1;P1;durP2;ratioP2;P2;SDS_P1;SDS_P2;PMS_P1;PMS_P2;Temp;Humidity;BMP_temperature;BMP_pressure;BME280_temperature;BME280_humidity;BME280_pressure;Samples;Min_cycle;Max_cycle;Signal;HPM_P1;HPM_P2
2022/01/04 00:02:18;;;;;;;0.60;0.60;;;7.50;99.90;;;;;;5061757;28;20041;-90
2022/01/04 00:04:43;;;;;;;0.90;0.90;;;7.40;99.90;;;;;;5064027;28;20055;-88
2022/01/04 00:07:09;;;;;;;0.60;0.60;;;7.50;99.90;;;;;;5049769;28;20055;-88
2022/01/04 00:09:39;;;;;;;2.58;1.98;;;7.40;99.90;;;;;;5077476;28;20036;-89
2022/01/04 00:14:51;;;;;;;0.60;0.60;;;7.30;99.90;;;;;;5067789;28;20048;-89
2022/01/04 00:17:17;;;;;;;0.93;0.93;;;7.30;99.90;;;;;;5065169;28;20037;-89
2022/01/04 00:19:42;;;;;;;0.70;0.70;;;7.40;99.90;;;;;;5051013;28;20096;-89
2022/01/04 00:22:08;;;;;;;0.63;0.63;;;7.30;99.90;;;;;;5061456;28;20036;-89
2022/01/04 00:24:36;;;;;;;0.60;0.60;;;7.40;99.90;;;;;;5062844;28;20040;-88
2022/01/04 00:27:02;;;;;;;0.80;0.80;;;7.40;99.90;;;;;;5060869;28;20047;-90
2022/01/04 00:29:28;;;;;;;0.60;0.60;;;7.30;99.90;;;;;;5049105;28;20045;-88
2022/01/04 00:31:53;;;;;;;1.17;1.15;;;7.30;99.90;;;;;;5053966;28;20041;-90
2022/01/04 00:34:19;;;;;;;0.65;0.65;;;7.30;99.90;;;;;;5061169;28;20148;-88
2022/01/04 00:36:45;;;;;;;1.08;1.08;;;7.30;99.90;;;;;;5061900;28;20063;-89
2022/01/04 00:39:10;;;;;;;1.45;1.35;;;7.20;99.90;;;;;;5061236;28;20077;-89
2022/01/04 00:41:36;;;;;;;0.70;0.70;;;7.20;99.90;;;;;;5064364;28;20036;-89
2022/01/04 00:44:02;;;;;;;0.70;0.70;;;7.30;99.90;;;;;;5060299;28;20099;-90
2022/01/04 00:46:27;;;;;;;0.63;0.63;;;7.20;99.90;;;;;;5060740;28;20127;-89
2022/01/04 00:49:11;;;;;;;0.68;0.68;;;7.20;99.90;;;;;;5056343;28;20036;-89
2022/01/04 00:51:38;;;;;;;1.55;1.45;;;7.10;99.90;;;;;;5048942;28;20390;-89
2022/01/04 00:54:04;;;;;;;0.70;0.70;;;7.10;99.90;;;;;;5059578;28;20094;-89
2022/01/04 00:56:30;;;;;;;1.80;0.80;;;7.10;99.90;;;;;;5047260;28;20045;-89
2022/01/04 00:58:56;;;;;;;0.70;0.70;;;7.00;99.90;;;;;;5058480;28;20068;-89
2022/01/04 01:01:22;;;;;;;0.60;0.60;;;7.00;99.90;;;;;;5059611;28;20061;-89
2022/01/04 01:03:47;;;;;;;0.73;0.73;;;7.00;99.90;;;;;;5049606;28;20048;-89
2022/01/04 01:06:13;;;;;;;0.60;0.60;;;7.00;99.90;;;;;;5070501;28;20209;-89
2022/01/04 01:08:39;;;;;;;0.88;0.88;;;7.00;99.90;;;;;;5077466;28;20073;-89
2022/01/04 01:11:06;;;;;;;1.77;1.67;;;7.00;99.90;;;;;;5056728;28;20040;-90
2022/01/04 01:13:32;;;;;;;2.35;1.33;;;7.10;99.90;;;;;;5057850;28;20449;-88
2022/01/04 01:15:57;;;;;;;4.80;1.67;;;7.10;99.90;;;;;;5060632;28;20051;-88
2022/01/04 01:18:23;;;;;;;0.70;0.70;;;7.10;99.90;;;;;;5059981;28;20040;-88
2022/01/04 01:20:49;;;;;;;0.65;0.65;;;7.10;99.90;;;;;;5058921;28;20044;-89
2022/01/04 01:23:16;;;;;;;0.60;0.60;;;7.10;99.90;;;;;;5054732;28;20086;-88
2022/01/04 01:25:41;;;;;;;0.70;0.70;;;7.10;99.90;;;;;;5062467;28;20132;-88
2022/01/04 01:28:07;;;;;;;0.68;0.68;;;7.10;99.90;;;;;;5064173;28;20150;-90
2022/01/04 01:30:36;;;;;;;0.77;0.77;;;7.10;99.90;;;;;;5053046;28;20100;-89
2022/01/04 01:33:03;;;;;;;0.95;0.95;;;7.20;99.90;;;;;;5063846;28;20051;-89
2022/01/04 01:35:30;;;;;;;1.55;1.45;;;7.20;99.90;;;;;;5050042;28;20041;-88
2022/01/04 01:37:57;;;;;;;0.63;0.63;;;7.20;99.90;;;;;;5062304;28;20101;-88
2022/01/04 01:40:23;;;;;;;0.60;0.60;;;7.30;99.90;;;;;;5076757;28;20044;-89
2022/01/04 01:42:49;;;;;;;0.60;0.60;;;7.30;99.90;;;;;;5056597;28;20044;-89
2022/01/04 01:45:16;;;;;;;0.60;0.60;;;7.30;99.90;;;;;;5057107;28;20044;-88
2022/01/04 01:47:45;;;;;;;1.48;1.17;;;7.30;99.90;;;;;;5061443;28;20040;-88
2022/01/04 01:50:12;;;;;;;0.80;0.80;;;7.40;99.90;;;;;;5063990;28;20086;-89
2022/01/04 01:52:39;;;;;;;0.60;0.60;;;7.40;99.90;;;;;;5060199;28;20043;-89
2022/01/04 01:55:06;;;;;;;3.63;1.00;;;7.40;99.90;;;;;;5055939;28;20099;-89
2022/01/04 01:57:32;;;;;;;0.70;0.70;;;7.50;99.90;;;;;;5061961;28;20040;-89
2022/01/04 01:59:58;;;;;;;1.92;1.83;;;7.50;99.90;;;;;;5054137;28;20045;-88
2022/01/04 02:02:24;;;;;;;0.60;0.60;;;7.50;99.90;;;;;;5057866;28;20101;-88
2022/01/04 02:04:49;;;;;;;0.70;0.70;;;7.60;99.90;;;;;;5059160;28;20133;-89
2022/01/04 02:07:18;;;;;;;0.70;0.70;;;7.60;99.90;;;;;;5057767;28;20044;-89
2022/01/04 02:09:52;;;;;;;0.65;0.65;;;7.50;99.90;;;;;;5059010;28;20037;-90
2022/01/04 02:12:19;;;;;;;;;;;7.50;99.90;;;;;;5064726;28;20095;-89
2022/01/04 02:14:51;;;;;;;0.50;0.50;;;7.50;99.90;;;;;;5065407;28;19947;-88
2022/01/04 02:17:17;;;;;;;0.60;0.60;;;7.50;99.90;;;;;;5059645;28;20503;-88
2022/01/04 02:19:43;;;;;;;0.60;0.60;;;7.50;99.90;;;;;;5060801;28;20085;-87
2022/01/04 02:22:08;;;;;;;0.75;0.75;;;7.50;99.90;;;;;;5067518;28;20043;-87
2022/01/04 02:24:34;;;;;;;0.60;0.60;;;7.50;99.90;;;;;;5067822;28;20112;-87
2022/01/04 02:27:00;;;;;;;0.63;0.63;;;7.50;99.90;;;;;;5061948;28;20051;-88
2022/01/04 02:29:27;;;;;;;0.95;0.95;;;7.50;99.90;;;;;;5060074;28;20445;-88
2022/01/04 02:31:53;;;;;;;0.60;0.60;;;7.50;99.90;;;;;;5060680;28;20083;-87
2022/01/04 02:34:19;;;;;;;20.42;2.10;;;7.50;99.90;;;;;;5066910;28;20140;-89
2022/01/04 02:36:45;;;;;;;1.55;1.45;;;7.50;99.90;;;;;;5058537;28;20052;-89
2022/01/04 02:39:11;;;;;;;0.80;0.80;;;7.50;99.90;;;;;;5066609;28;20033;-89
2022/01/04 02:41:36;;;;;;;1.30;1.20;;;7.50;99.90;;;;;;5071131;28;20065;-89
2022/01/04 02:44:03;;;;;;;0.60;0.60;;;7.50;99.90;;;;;;5062842;28;20131;-89
2022/01/04 02:46:29;;;;;;;0.60;0.60;;;7.50;99.90;;;;;;5063983;28;20051;-88
2022/01/04 02:48:55;;;;;;;0.70;0.70;;;7.50;99.90;;;;;;5064501;28;20049;-88
2022/01/04 02:51:20;;;;;;;1.95;1.30;;;7.50;99.90;;;;;;5066631;28;20128;-86
2022/01/04 02:53:46;;;;;;;0.60;0.60;;;7.60;99.90;;;;;;5066707;28;20044;-87
2022/01/04 02:56:13;;;;;;;8.32;1.15;;;7.60;99.90;;;;;;5066446;28;20048;-87
2022/01/04 02:58:39;;;;;;;0.60;0.60;;;7.60;99.90;;;;;;5058251;28;20067;-88
2022/01/04 03:01:05;;;;;;;0.90;0.90;;;7.60;99.90;;;;;;5055894;28;20040;-89
2022/01/04 03:03:31;;;;;;;0.60;0.60;;;7.50;99.90;;;;;;5066343;28;20079;-88
2022/01/04 03:05:57;;;;;;;0.60;0.60;;;7.50;99.90;;;;;;5063713;28;20050;-88
2022/01/04 03:08:24;;;;;;;0.90;0.90;;;7.50;99.90;;;;;;5057658;28;20048;-89
2022/01/04 03:10:50;;;;;;;1.08;0.90;;;7.50;99.90;;;;;;5065650;28;20044;-87
2022/01/04 03:13:16;;;;;;;0.60;0.60;;;7.50;99.90;;;;;;5059503;28;20043;-88
2022/01/04 03:15:46;;;;;;;0.55;0.55;;;7.50;99.90;;;;;;5061854;28;20047;-87
2022/01/04 03:18:12;;;;;;;0.60;0.60;;;7.50;99.90;;;;;;5053598;28;20037;-89
2022/01/04 03:20:38;;;;;;;0.60;0.60;;;7.50;99.90;;;;;;5079716;28;20072;-89
2022/01/04 03:23:08;;;;;;;0.60;0.60;;;7.60;99.90;;;;;;5065729;28;20067;-88
2022/01/04 03:25:35;;;;;;;0.70;0.70;;;7.60;99.90;;;;;;5081731;28;20067;-88
2022/01/04 03:28:01;;;;;;;0.65;0.65;;;7.50;99.90;;;;;;5066008;28;20045;-89
2022/01/04 03:30:27;;;;;;;1.08;1.08;;;7.50;99.90;;;;;;5066262;28;20037;-88
2022/01/04 03:32:54;;;;;;;0.82;0.82;;;7.50;99.90;;;;;;5065669;28;20397;-88
2022/01/04 03:35:20;;;;;;;1.33;0.88;;;7.50;99.90;;;;;;5065832;28;20045;-88
2022/01/04 03:37:46;;;;;;;3.20;1.65;;;7.50;99.90;;;;;;5052090;28;20062;-88
2022/01/04 03:40:12;;;;;;;0.60;0.60;;;7.50;99.90;;;;;;5059951;28;20033;-89
2022/01/04 03:42:37;;;;;;;1.08;1.08;;;7.50;99.90;;;;;;5062475;28;20043;-89
2022/01/04 03:45:04;;;;;;;0.60;0.60;;;7.50;99.90;;;;;;5057812;28;20055;-89
2022/01/04 03:47:29;;;;;;;6.40;4.95;;;7.50;99.90;;;;;;5054839;28;20067;-88
2022/01/04 03:49:55;;;;;;;1.17;0.80;;;7.40;99.90;;;;;;5057191;28;20060;-87
2022/01/04 03:52:20;;;;;;;0.60;0.60;;;7.40;99.90;;;;;;5057684;28;20234;-89
2022/01/04 03:54:46;;;;;;;0.98;0.95;;;7.40;99.90;;;;;;5059816;28;20040;-88
2022/01/04 03:57:12;;;;;;;0.60;0.60;;;7.40;99.90;;;;;;5056512;28;20041;-88
2022/01/04 03:59:37;;;;;;;1.17;1.10;;;7.50;99.90;;;;;;5060063;28;20033;-90
2022/01/04 04:02:03;;;;;;;3.05;1.33;;;7.40;99.90;;;;;;5062759;28;20059;-88
2022/01/04 04:04:28;;;;;;;0.80;0.80;;;7.40;99.90;;;;;;5059032;28;20028;-89
2022/01/04 04:06:54;;;;;;;0.73;0.73;;;7.40;99.90;;;;;;5068325;28;20075;-89
2022/01/04 04:09:20;;;;;;;0.95;0.95;;;7.40;99.90;;;;;;5053242;28;20040;-89
2022/01/04 04:11:45;;;;;;;1.45;1.35;;;7.40;99.90;;;;;;5068896;28;20110;-88
2022/01/04 04:14:11;;;;;;;0.70;0.70;;;7.40;99.90;;;;;;5058707;28;20037;-88
2022/01/04 04:16:36;;;;;;;0.52;0.52;;;7.40;99.90;;;;;;5075964;28;20104;-88
2022/01/04 04:19:02;;;;;;;3.70;2.42;;;7.40;99.90;;;;;;5060581;28;20056;-88
2022/01/04 04:21:28;;;;;;;0.60;0.60;;;7.40;99.90;;;;;;5064347;28;20041;-88
2022/01/04 04:23:53;;;;;;;0.60;0.60;;;7.40;99.90;;;;;;5076800;28;20048;-88
2022/01/04 04:26:19;;;;;;;22.30;1.25;;;7.40;99.90;;;;;;5061242;28;20513;-88
2022/01/04 04:28:44;;;;;;;1.58;1.30;;;7.40;99.90;;;;;;5055530;28;20531;-89
2022/01/04 04:31:10;;;;;;;1.67;1.58;;;7.40;99.90;;;;;;5061348;28;20045;-89
2022/01/04 04:33:36;;;;;;;0.70;0.70;;;7.40;99.90;;;;;;5058714;28;20040;-89
2022/01/04 04:36:01;;;;;;;0.85;0.77;;;7.40;99.90;;;;;;5058318;28;20067;-89
2022/01/04 04:38:27;;;;;;;0.80;0.80;;;7.30;99.90;;;;;;5051186;28;20041;-89
2022/01/04 04:40:53;;;;;;;1.75;0.98;;;7.30;99.90;;;;;;5053501;28;20040;-88
2022/01/04 04:43:18;;;;;;;0.70;0.65;;;7.30;99.90;;;;;;5059151;28;20044;-88
2022/01/04 04:45:44;;;;;;;0.60;0.60;;;7.30;99.90;;;;;;5063735;28;20036;-89
2022/01/04 04:48:09;;;;;;;0.60;0.60;;;7.30;99.90;;;;;;5065938;28;20044;-87
2022/01/04 04:50:35;;;;;;;5.63;3.97;;;7.30;99.90;;;;;;5071221;28;20464;-88
2022/01/04 04:53:01;;;;;;;1.45;1.35;;;7.30;99.90;;;;;;5062557;28;20067;-90
2022/01/04 04:55:27;;;;;;;1.52;1.42;;;7.30;99.90;;;;;;5058201;28;20049;-89
2022/01/04 04:57:52;;;;;;;0.80;0.80;;;7.30;99.90;;;;;;5054007;28;20344;-89
2022/01/04 05:00:18;;;;;;;0.75;0.75;;;7.40;99.90;;;;;;5051421;28;20045;-87
2022/01/04 05:02:43;;;;;;;1.00;1.00;;;7.40;99.90;;;;;;5062525;28;20086;-88
2022/01/04 05:05:09;;;;;;;0.77;0.77;;;7.40;99.90;;;;;;5061932;28;20131;-88
2022/01/04 05:07:35;;;;;;;12.43;2.05;;;7.40;99.90;;;;;;5082300;28;20048;-89
2022/01/04 05:10:04;;;;;;;0.75;0.75;;;7.40;99.90;;;;;;5055042;28;20152;-89
2022/01/04 05:12:29;;;;;;;0.80;0.80;;;7.40;99.90;;;;;;5069468;28;20832;-89
2022/01/04 05:14:55;;;;;;;0.60;0.60;;;7.40;99.90;;;;;;5064003;28;20040;-88
2022/01/04 05:17:21;;;;;;;0.82;0.82;;;7.40;99.90;;;;;;5059497;28;20056;-88
2022/01/04 05:19:46;;;;;;;0.57;0.57;;;7.30;99.90;;;;;;5060565;28;20102;-88
2022/01/04 05:22:12;;;;;;;0.60;0.60;;;7.30;99.90;;;;;;5058878;28;20029;-87
2022/01/04 05:24:37;;;;;;;0.60;0.60;;;7.30;99.90;;;;;;5065658;28;20550;-89
2022/01/04 05:27:03;;;;;;;1.17;1.17;;;7.30;99.90;;;;;;5060420;28;20375;-89
2022/01/04 05:29:29;;;;;;;0.70;0.70;;;7.30;99.90;;;;;;5060954;28;20048;-88
2022/01/04 05:31:55;;;;;;;0.88;0.88;;;7.30;99.90;;;;;;5056380;28;20055;-89
2022/01/04 05:34:20;;;;;;;0.75;0.75;;;7.30;99.90;;;;;;5066029;28;20093;-88
2022/01/04 05:36:46;;;;;;;0.82;0.82;;;7.30;99.90;;;;;;5084548;28;20102;-88
2022/01/04 05:39:11;;;;;;;1.13;1.13;;;7.30;99.90;;;;;;5068613;28;20040;-88
2022/01/04 05:41:37;;;;;;;0.60;0.60;;;7.30;99.90;;;;;;5072309;28;20123;-89
2022/01/04 05:44:02;;;;;;;0.80;0.80;;;7.40;99.90;;;;;;5059554;28;20063;-89
2022/01/04 05:46:28;;;;;;;1.60;1.23;;;7.40;99.90;;;;;;5047582;28;20116;-88
2022/01/04 05:48:54;;;;;;;2.30;1.75;;;7.30;99.90;;;;;;5060070;28;20051;-88
2022/01/04 05:51:19;;;;;;;0.52;0.52;;;7.30;99.90;;;;;;5049248;28;20037;-88
2022/01/04 05:53:45;;;;;;;0.80;0.80;;;7.30;99.90;;;;;;5056403;28;20041;-89
2022/01/04 05:56:11;;;;;;;9.75;1.50;;;7.30;99.90;;;;;;5045542;28;20045;-89
2022/01/04 05:58:36;;;;;;;1.05;1.02;;;7.30;99.90;;;;;;5058364;28;20037;-88
2022/01/04 06:01:02;;;;;;;0.90;0.88;;;7.30;99.90;;;;;;5059701;28;20110;-88
2022/01/04 06:03:28;;;;;;;6.47;1.77;;;7.30;99.90;;;;;;5054491;28;20075;-88
2022/01/04 06:05:54;;;;;;;0.77;0.77;;;7.30;99.90;;;;;;5050998;28;20156;-88
2022/01/04 06:08:21;;;;;;;0.90;0.90;;;7.30;99.90;;;;;;5057798;28;20133;-89
2022/01/04 06:10:51;;;;;;;0.80;0.80;;;7.30;99.90;;;;;;5050052;28;20278;-89
2022/01/04 06:16:01;;;;;;;1.25;1.15;;;7.30;99.90;;;;;;5075248;28;20184;-88
2022/01/04 06:18:26;;;;;;;0.82;0.82;;;7.30;99.90;;;;;;5056601;28;20144;-89
2022/01/04 06:20:55;;;;;;;1.27;1.17;;;7.30;99.90;;;;;;5060181;28;20056;-88
2022/01/04 06:23:20;;;;;;;0.55;0.55;;;7.30;99.90;;;;;;5060650;28;20035;-89
2022/01/04 06:25:46;;;;;;;0.75;0.75;;;7.30;99.90;;;;;;5052347;28;20449;-88
2022/01/04 06:28:12;;;;;;;0.70;0.70;;;7.30;99.90;;;;;;5057698;28;20074;-89
2022/01/04 06:30:37;;;;;;;1.33;0.80;;;7.30;99.90;;;;;;5056096;28;20096;-89
2022/01/04 06:33:03;;;;;;;0.80;0.80;;;7.30;99.90;;;;;;5079960;28;20048;-88
2022/01/04 06:35:30;;;;;;;1.33;0.90;;;7.30;99.90;;;;;;5077599;28;20101;-89
2022/01/04 06:37:56;;;;;;;0.68;0.68;;;7.30;99.90;;;;;;5073321;28;20072;-88
2022/01/04 06:40:22;;;;;;;0.80;0.80;;;7.30;99.90;;;;;;5068647;28;20582;-87
2022/01/04 06:42:47;;;;;;;1.73;1.35;;;7.30;99.90;;;;;;5062984;28;20039;-88
2022/01/04 06:45:14;;;;;;;1.00;1.00;;;7.40;99.90;;;;;;5061168;28;20112;-87
2022/01/04 06:47:41;;;;;;;1.25;1.17;;;7.40;99.90;;;;;;5050624;28;20045;-88
2022/01/04 06:50:07;;;;;;;1.85;1.13;;;7.40;99.90;;;;;;5063928;28;20251;-88
2022/01/04 06:52:33;;;;;;;1.42;1.33;;;7.40;99.90;;;;;;5070845;28;20031;-87
2022/01/04 06:54:59;;;;;;;3.50;1.92;;;7.40;99.90;;;;;;5089456;28;20025;-88
2022/01/04 06:57:25;;;;;;;5.00;1.52;;;7.50;99.90;;;;;;5067837;28;20048;-87
2022/01/04 06:59:50;;;;;;;0.80;0.80;;;7.50;99.90;;;;;;5070806;28;20025;-87
2022/01/04 07:02:16;;;;;;;1.20;1.10;;;7.40;99.90;;;;;;5072117;28;20088;-87
2022/01/04 07:04:41;;;;;;;1.20;0.93;;;7.40;99.90;;;;;;5073295;28;20112;-87
2022/01/04 07:07:07;;;;;;;0.60;0.60;;;7.30;99.90;;;;;;5068242;28;20068;-81
2022/01/04 07:09:33;;;;;;;8.48;1.98;;;7.30;99.90;;;;;;5077342;28;20116;-82
2022/01/04 07:11:58;;;;;;;0.60;0.60;;;7.30;99.90;;;;;;5078099;28;20041;-82
2022/01/04 07:14:24;;;;;;;1.15;1.10;;;7.30;99.90;;;;;;5078249;28;20041;-82
2022/01/04 07:16:49;;;;;;;0.80;0.80;;;7.20;99.90;;;;;;5073058;28;20041;-83
2022/01/04 07:19:15;;;;;;;0.73;0.73;;;7.20;99.90;;;;;;5069539;28;20145;-82
2022/01/04 07:21:41;;;;;;;0.70;0.70;;;7.20;99.90;;;;;;5066846;28;20045;-82
2022/01/04 07:24:07;;;;;;;0.80;0.80;;;7.10;99.90;;;;;;5075564;28;20041;-82
2022/01/04 07:26:33;;;;;;;1.55;1.45;;;7.20;99.90;;;;;;5077394;28;20039;-83
2022/01/04 07:28:58;;;;;;;21.80;1.27;;;7.20;99.90;;;;;;5077433;28;20090;-83
2022/01/04 07:31:24;;;;;;;0.88;0.73;;;7.20;99.90;;;;;;5057760;28;20033;-82
2022/01/04 07:33:50;;;;;;;1.05;0.95;;;7.20;99.90;;;;;;5078337;28;20160;-82
2022/01/04 07:36:16;;;;;;;0.60;0.60;;;7.20;99.90;;;;;;5064636;28;20037;-82
2022/01/04 07:38:42;;;;;;;3.72;0.88;;;7.10;99.90;;;;;;5068971;28;20078;-82
2022/01/04 07:41:08;;;;;;;0.60;0.60;;;7.10;99.90;;;;;;5069297;28;20048;-82
2022/01/04 07:43:34;;;;;;;0.60;0.60;;;7.10;99.90;;;;;;5077204;28;20029;-82
2022/01/04 07:46:00;;;;;;;0.60;0.60;;;7.20;99.90;;;;;;5074916;28;20138;-82
2022/01/04 07:48:26;;;;;;;1.20;0.98;;;7.10;99.90;;;;;;5075990;28;20059;-82
2022/01/04 07:50:55;;;;;;;0.80;0.80;;;7.10;99.90;;;;;;5079785;28;20041;-81
2022/01/04 07:53:22;;;;;;;0.70;0.70;;;7.20;99.90;;;;;;5076083;28;20091;-82
2022/01/04 07:55:48;;;;;;;2.58;1.75;;;7.20;99.90;;;;;;5076444;28;20070;-81
2022/01/04 07:58:13;;;;;;;0.70;0.70;;;7.20;99.90;;;;;;5068984;28;20579;-82
2022/01/04 08:00:39;;;;;;;0.98;0.98;;;7.20;99.90;;;;;;5070580;28;20044;-81
2022/01/04 08:03:06;;;;;;;0.55;0.55;;;7.20;99.90;;;;;;5074930;28;20140;-81
2022/01/04 08:05:33;;;;;;;0.95;0.85;;;7.10;99.90;;;;;;5067377;28;20089;-82
2022/01/04 08:07:58;;;;;;;0.60;0.60;;;7.10;99.90;;;;;;5057268;28;20056;-81
2022/01/04 08:10:27;;;;;;;0.60;0.60;;;7.10;99.90;;;;;;5074905;28;20048;-82
2022/01/04 08:12:52;;;;;;;2.22;0.95;;;6.90;99.90;;;;;;5081522;28;20721;-82
2022/01/04 08:15:18;;;;;;;0.60;0.60;;;6.90;99.90;;;;;;5076937;28;20089;-81
2022/01/04 08:17:43;;;;;;;0.70;0.70;;;6.90;99.90;;;;;;5079237;28;20103;-81
2022/01/04 08:20:10;;;;;;;0.55;0.55;;;6.90;99.90;;;;;;5081748;28;20574;-83
2022/01/04 08:22:36;;;;;;;0.90;0.90;;;6.90;99.90;;;;;;5069562;28;20061;-82
2022/01/04 08:25:05;;;;;;;3.22;1.13;;;6.90;99.90;;;;;;5073944;28;20044;-81
2022/01/04 08:27:32;;;;;;;0.63;0.63;;;7.00;99.90;;;;;;5081033;28;20044;-81
2022/01/04 08:29:58;;;;;;;1.58;1.13;;;7.00;99.90;;;;;;5078661;28;20040;-82
2022/01/04 08:32:23;;;;;;;1.23;1.13;;;7.00;99.90;;;;;;5061612;28;20036;-82
2022/01/04 08:34:49;;;;;;;17.83;0.95;;;6.90;99.90;;;;;;5075106;28;20048;-80
2022/01/04 08:37:15;;;;;;;0.60;0.60;;;7.00;99.90;;;;;;5070406;28;20033;-82
2022/01/04 08:39:41;;;;;;;0.80;0.80;;;6.90;99.90;;;;;;5078022;28;20037;-82
2022/01/04 08:42:06;;;;;;;0.70;0.70;;;6.90;99.90;;;;;;5076083;28;20037;-85
2022/01/04 08:44:39;;;;;;;0.60;0.60;;;6.80;99.90;;;;;;5075784;28;20068;-85
2022/01/04 08:47:12;;;;;;;0.80;0.80;;;6.80;99.90;;;;;;5074720;28;20439;-85
2022/01/04 08:49:38;;;;;;;0.50;0.50;;;6.70;99.90;;;;;;5073938;28;20037;-86
2022/01/04 08:52:06;;;;;;;0.63;0.63;;;6.70;99.90;;;;;;5057911;28;20040;-84
2022/01/04 08:54:32;;;;;;;0.63;0.63;;;6.70;99.90;;;;;;5077578;28;20067;-85
2022/01/04 08:56:58;;;;;;;0.70;0.70;;;6.70;99.90;;;;;;5078749;28;20559;-81
2022/01/04 08:59:24;;;;;;;0.68;0.65;;;6.70;99.90;;;;;;5080177;28;20033;-82
2022/01/04 09:01:49;;;;;;;0.55;0.55;;;6.70;99.90;;;;;;5077224;28;20044;-82
2022/01/04 09:04:15;;;;;;;0.60;0.60;;;6.80;99.90;;;;;;5079704;28;20127;-82
2022/01/04 09:06:41;;;;;;;0.55;0.55;;;6.90;99.90;;;;;;5075708;28;20210;-82
2022/01/04 09:09:06;;;;;;;0.68;0.68;;;6.80;99.90;;;;;;5074565;28;20144;-83
2022/01/04 09:11:32;;;;;;;0.50;0.50;;;6.80;99.90;;;;;;5077390;28;20040;-83
2022/01/04 09:19:26;;;;;;;0.50;0.50;;;6.70;99.90;;;;;;5070531;28;20052;-82
2022/01/04 09:21:52;;;;;;;0.88;0.88;;;6.70;99.90;;;;;;5075540;28;20070;-83
2022/01/04 09:24:18;;;;;;;0.60;0.60;;;6.70;99.90;;;;;;5076658;28;20059;-83
2022/01/04 09:26:44;;;;;;;0.50;0.50;;;6.60;99.90;;;;;;5074920;28;20041;-83
2022/01/04 09:29:10;;;;;;;0.60;0.60;;;6.60;99.90;;;;;;5078486;28;20569;-84
2022/01/04 09:31:36;;;;;;;0.50;0.50;;;6.60;99.90;;;;;;5071607;28;20063;-83
2022/01/04 09:34:03;;;;;;;1.58;0.70;;;6.60;99.90;;;;;;5064441;28;20048;-85
2022/01/04 09:36:33;;;;;;;0.60;0.60;;;6.60;99.90;;;;;;5053750;28;20045;-84
2022/01/04 09:38:59;;;;;;;0.50;0.50;;;6.60;99.90;;;;;;5056295;28;20120;-83
2022/01/04 09:41:25;;;;;;;0.60;0.60;;;6.60;99.90;;;;;;5075239;28;20041;-83
2022/01/04 09:43:52;;;;;;;0.60;0.60;;;6.60;99.90;;;;;;5068373;28;20062;-82
2022/01/04 09:46:18;;;;;;;0.52;0.52;;;6.60;99.90;;;;;;5056844;28;20373;-83
2022/01/04 09:48:43;;;;;;;0.60;0.60;;;6.60;99.90;;;;;;5050584;28;20055;-83
2022/01/04 09:51:11;;;;;;;0.50;0.50;;;6.60;99.90;;;;;;5065235;28;20064;-82
2022/01/04 09:53:36;;;;;;;0.60;0.60;;;6.60;99.90;;;;;;5065220;28;20060;-82
2022/01/04 09:56:02;;;;;;;0.60;0.60;;;6.60;99.90;;;;;;5055207;28;20041;-83
2022/01/04 09:58:28;;;;;;;0.60;0.60;;;6.70;99.90;;;;;;5071786;28;20068;-82
2022/01/04 10:00:54;;;;;;;0.55;0.55;;;6.70;99.90;;;;;;5073413;28;20099;-81
2022/01/04 10:03:31;;;;;;;0.60;0.60;;;6.70;99.90;;;;;;5061513;28;20079;-82
2022/01/04 10:06:15;;;;;;;0.50;0.50;;;6.70;99.90;;;;;;5071581;28;20191;-82
2022/01/04 10:08:53;;;;;;;;;;;6.60;99.90;;;;;;5075934;28;20036;-82
2022/01/04 10:11:39;;;;;;;3.03;1.40;;;6.60;99.90;;;;;;5069734;28;19936;-82
2022/01/04 10:14:28;;;;;;;0.50;0.50;;;6.50;99.90;;;;;;5066100;28;20094;-82
2022/01/04 10:16:57;;;;;;;0.50;0.50;;;6.50;99.90;;;;;;5063764;28;20069;-83
2022/01/04 10:19:33;;;;;;;0.50;0.50;;;6.40;99.90;;;;;;5073218;28;20047;-82
2022/01/04 10:22:17;;;;;;;0.50;0.50;;;6.40;99.90;;;;;;5069901;28;20053;-83
2022/01/04 10:24:46;;;;;;;0.63;0.63;;;6.30;99.90;;;;;;5075707;28;20096;-83
2022/01/04 10:27:27;;;;;;;0.60;0.60;;;6.20;99.90;;;;;;5080014;28;20063;-82
2022/01/04 10:30:16;;;;;;;0.60;0.60;;;6.10;99.90;;;;;;5071238;28;20060;-81
2022/01/04 10:32:57;;;;;;;0.65;0.65;;;6.00;99.90;;;;;;5075963;28;20040;-81
2022/01/04 10:35:45;;;;;;;0.60;0.60;;;5.90;99.90;;;;;;5071822;28;20064;-82
2022/01/04 10:38:23;;;;;;;0.70;0.70;;;5.90;99.90;;;;;;5077523;28;20505;-81
2022/01/04 10:40:59;;;;;;;0.70;0.70;;;5.80;99.90;;;;;;5073669;28;20064;-84
2022/01/04 10:43:47;;;;;;;0.60;0.60;;;5.80;99.90;;;;;;5074940;28;20032;-83
2022/01/04 10:46:14;;;;;;;0.70;0.70;;;5.70;99.90;;;;;;5064728;28;20062;-84
2022/01/04 10:48:43;;;;;;;0.60;0.60;;;5.70;99.90;;;;;;5081407;28;20056;-85
2022/01/04 10:51:17;;;;;;;0.60;0.60;;;5.60;99.90;;;;;;5080601;28;20119;-85
2022/01/04 10:53:50;;;;;;;0.60;0.60;;;5.60;99.90;;;;;;5075678;28;20043;-85
2022/01/04 10:56:22;;;;;;;0.60;0.60;;;5.60;99.90;;;;;;5079597;28;20049;-86
2022/01/04 10:58:50;;;;;;;0.60;0.60;;;5.70;99.90;;;;;;5059325;28;20128;-85
2022/01/04 11:01:18;;;;;;;0.70;0.70;;;5.70;99.90;;;;;;5058337;28;20052;-84
2022/01/04 11:03:51;;;;;;;0.50;0.50;;;5.70;99.90;;;;;;5072684;28;20052;-84
2022/01/04 11:06:37;;;;;;;0.70;0.70;;;5.70;99.90;;;;;;5071772;28;20357;-84
2022/01/04 11:09:04;;;;;;;0.60;0.60;;;5.70;99.90;;;;;;5069225;28;20057;-85
2022/01/04 11:11:29;;;;;;;0.82;0.82;;;5.70;99.90;;;;;;5066717;28;20052;-84
2022/01/04 11:13:55;;;;;;;0.60;0.60;;;5.70;99.90;;;;;;5082514;28;20049;-85
2022/01/04 11:16:23;;;;;;;0.70;0.70;;;5.60;99.90;;;;;;5077127;28;20071;-85
2022/01/04 11:18:51;;;;;;;0.60;0.60;;;5.60;99.90;;;;;;5060852;28;20029;-84
2022/01/04 11:21:25;;;;;;;0.60;0.60;;;5.60;99.90;;;;;;5055177;28;20045;-84
2022/01/04 11:23:52;;;;;;;0.70;0.70;;;5.60;99.90;;;;;;5072208;28;20029;-84
2022/01/04 11:26:19;;;;;;;0.70;0.70;;;5.50;99.90;;;;;;5077471;28;20501;-83
2022/01/04 11:28:47;;;;;;;0.60;0.60;;;5.60;99.90;;;;;;5056236;28;20095;-84
2022/01/04 11:31:18;;;;;;;0.60;0.60;;;5.50;99.90;;;;;;5075175;28;20057;-84
2022/01/04 11:34:10;;;;;;;0.63;0.63;;;5.50;99.90;;;;;;5078946;28;20032;-83
2022/01/04 11:36:42;;;;;;;0.60;0.60;;;5.50;99.90;;;;;;5071652;28;20079;-84
2022/01/04 11:39:26;;;;;;;0.60;0.60;;;5.40;99.90;;;;;;5077336;28;20476;-85
2022/01/04 11:41:51;;;;;;;0.70;0.70;;;5.40;99.90;;;;;;5059291;28;20041;-84
2022/01/04 11:44:19;;;;;;;0.70;0.70;;;5.30;99.90;;;;;;5073693;28;20033;-83
2022/01/04 11:46:58;;;;;;;0.63;0.63;;;5.30;99.90;;;;;;5079377;28;20067;-84
2022/01/04 11:49:24;;;;;;;0.57;0.57;;;5.30;99.90;;;;;;5063105;28;20040;-85
2022/01/04 11:51:49;;;;;;;0.80;0.80;;;5.30;99.90;;;;;;5062902;28;20075;-86
2022/01/04 11:54:26;;;;;;;0.68;0.68;;;5.30;99.90;;;;;;5058111;28;20104;-83
2022/01/04 11:57:02;;;;;;;0.70;0.70;;;5.30;99.90;;;;;;5057228;28;20068;-81
2022/01/04 11:59:38;;;;;;;0.60;0.60;;;5.30;99.90;;;;;;5074662;28;20033;-82
2022/01/04 12:02:28;;;;;;;0.60;0.60;;;5.40;99.90;;;;;;5078206;28;20048;-81
2022/01/04 12:05:04;;;;;;;0.60;0.60;;;5.50;99.90;;;;;;5070262;28;20051;-81
2022/01/04 12:07:59;;;;;;;0.60;0.60;;;5.60;99.90;;;;;;5077246;28;20131;-82
2022/01/04 12:10:25;;;;;;;0.60;0.60;;;5.70;99.90;;;;;;5060823;28;20152;-81
2022/01/04 12:13:06;;;;;;;0.60;0.60;;;5.80;99.90;;;;;;5075746;28;20063;-81
2022/01/04 12:15:34;;;;;;;0.63;0.63;;;5.80;99.90;;;;;;5058152;28;20202;-84
2022/01/04 12:18:06;;;;;;;0.65;0.65;;;5.80;99.90;;;;;;5050028;28;20046;-83
2022/01/04 12:20:43;;;;;;;0.60;0.60;;;5.90;99.90;;;;;;5069789;28;20045;-83
2022/01/04 12:23:31;;;;;;;0.60;0.60;;;5.90;99.90;;;;;;5060418;28;20045;-84
2022/01/04 12:26:02;;;;;;;0.70;0.70;;;5.90;99.90;;;;;;5074263;28;20055;-82
2022/01/04 12:28:49;;;;;;;0.60;0.60;;;5.90;99.90;;;;;;5070337;28;20136;-82
2022/01/04 12:31:20;;;;;;;0.60;0.60;;;5.90;99.90;;;;;;5016360;28;20060;-82
2022/01/04 12:33:50;;;;;;;0.60;0.60;;;5.90;99.90;;;;;;5075278;28;20052;-81
2022/01/04 12:36:33;;;;;;;0.60;0.60;;;5.90;99.90;;;;;;5055495;28;20527;-82
2022/01/04 12:39:02;;;;;;;3.03;1.73;;;5.90;99.90;;;;;;5064387;28;20041;-82
2022/01/04 12:41:30;;;;;;;0.60;0.60;;;6.00;99.90;;;;;;5061582;28;20053;-82
2022/01/04 12:43:56;;;;;;;0.98;0.63;;;6.00;99.90;;;;;;5075328;28;20048;-81
2022/01/04 12:46:32;;;;;;;0.60;0.60;;;6.00;99.90;;;;;;5079261;28;20187;-82
2022/01/04 12:49:01;;;;;;;0.70;0.70;;;5.90;99.90;;;;;;5078472;28;20143;-81
2022/01/04 12:51:32;;;;;;;0.60;0.60;;;5.90;99.90;;;;;;5072440;28;20048;-81
2022/01/04 12:54:03;;;;;;;0.73;0.73;;;6.00;99.90;;;;;;5069335;28;20468;-81
2022/01/04 12:56:29;;;;;;;0.70;0.70;;;5.80;99.90;;;;;;5066399;28;20045;-81
2022/01/04 12:58:56;;;;;;;1.20;0.98;;;5.80;99.90;;;;;;5055165;28;20048;-81
2022/01/04 13:01:27;;;;;;;0.60;0.60;;;5.80;99.90;;;;;;5078067;28;20131;-81
2022/01/04 13:03:53;;;;;;;0.50;0.50;;;5.80;99.90;;;;;;5074817;28;20143;-81
2022/01/04 13:06:19;;;;;;;0.60;0.60;;;5.70;99.90;;;;;;5075019;28;20048;-80
2022/01/04 13:08:52;;;;;;;0.60;0.60;;;5.70;99.90;;;;;;5079631;28;20144;-81
2022/01/04 13:11:18;;;;;;;0.60;0.60;;;5.80;99.90;;;;;;5077044;28;20054;-81
2022/01/04 13:13:52;;;;;;;0.50;0.50;;;5.80;99.90;;;;;;5076361;28;20044;-81